createdAt,value
2019-02-22T00:01:02.228Z,65.63
2019-02-22T00:03:33.522Z,61.87
2019-02-22T00:06:04.767Z,62.83
2019-02-22T00:08:35.983Z,65.57
2019-02-22T00:11:06.889Z,61.83
2019-02-22T00:13:38.028Z,65.03
2019-02-22T00:16:09.179Z,68.30
2019-02-22T00:18:40.407Z,59.17
2019-02-22T00:21:12.826Z,70.33
2019-02-22T00:23:44.228Z,66.47
2019-02-22T00:26:15.159Z,70.00
2019-02-22T00:28:46.631Z,69.07
2019-02-22T00:31:17.550Z,72.63
2019-02-22T00:33:48.980Z,68.13
2019-02-22T00:36:20.135Z,66.73
2019-02-22T00:38:52.507Z,63.40
2019-02-22T00:41:23.778Z,63.10
2019-02-22T00:43:54.923Z,69.80
2019-02-22T00:46:26.419Z,71.37
2019-02-22T00:48:57.601Z,69.57
2019-02-22T00:51:29.015Z,69.07
2019-02-22T00:54:00.184Z,67.40
2019-02-22T00:56:32.535Z,61.67
2019-02-22T00:59:03.461Z,69.07
2019-02-22T01:01:34.631Z,61.77
2019-02-22T01:04:05.796Z,60.20
2019-02-22T01:06:36.980Z,69.37
2019-02-22T01:09:07.915Z,61.90
2019-02-22T01:11:38.881Z,70.30
2019-02-22T01:14:10.066Z,70.40
2019-02-22T01:16:41.233Z,77.87
2019-02-22T01:19:12.388Z,65.87
2019-02-22T01:21:43.625Z,70.33
2019-02-22T01:24:14.779Z,68.80
2019-02-22T01:26:45.963Z,65.50
2019-02-22T01:29:17.129Z,62.47
2019-02-22T01:31:48.587Z,62.43
2019-02-22T01:34:19.499Z,71.73
2019-02-22T01:36:50.910Z,69.70
2019-02-22T01:39:21.887Z,61.00
2019-02-22T01:41:52.807Z,65.40
2019-02-22T01:44:24.082Z,64.80
2019-02-22T01:46:55.220Z,61.20
2019-02-22T01:49:26.376Z,62.73
2019-02-22T01:51:57.764Z,69.67
2019-02-22T01:54:29.171Z,77.20
2019-02-22T01:57:00.405Z,69.73
2019-02-22T01:59:31.555Z,73.83
2019-02-22T02:02:02.467Z,69.17
2019-02-22T02:04:33.887Z,63.17
2019-02-22T02:07:05.400Z,71.00
2019-02-22T02:09:36.375Z,76.60
2019-02-22T02:12:07.603Z,88.17
2019-02-22T02:14:39.027Z,77.27
2019-02-22T02:17:10.180Z,68.83
2019-02-22T02:19:41.090Z,69.33
2019-02-22T02:22:12.232Z,64.30
2019-02-22T02:24:43.633Z,88.37
2019-02-22T02:27:14.803Z,67.90
2019-02-22T02:29:45.963Z,75.90
2019-02-22T02:32:17.122Z,74.87
2019-02-22T02:34:49.327Z,69.87
2019-02-22T02:37:20.472Z,78.83
2019-02-22T02:39:51.671Z,85.23
2019-02-22T02:42:22.563Z,76.50
2019-02-22T02:44:53.971Z,77.33
2019-02-22T02:47:25.116Z,81.27
2019-02-22T02:49:56.346Z,83.43
2019-02-22T02:52:27.258Z,74.23
2019-02-22T02:54:58.688Z,75.80
2019-02-22T02:57:29.863Z,82.40
2019-02-22T03:00:01.032Z,77.03
2019-02-22T03:02:32.605Z,70.90
2019-02-22T03:05:03.776Z,67.70
2019-02-22T03:07:46.044Z,69.67
2019-02-22T03:10:16.943Z,76.83
2019-02-22T03:12:47.848Z,78.03
2019-02-22T03:15:19.496Z,76.27
2019-02-22T03:17:50.647Z,65.97
2019-02-22T03:20:21.607Z,68.83
2019-02-22T03:22:52.764Z,73.27
2019-02-22T03:25:23.938Z,57.63
2019-02-22T03:27:55.093Z,61.23
2019-02-22T03:30:26.258Z,69.87
2019-02-22T03:32:57.517Z,66.33
2019-02-22T03:35:29.015Z,61.63
2019-02-22T03:38:00.185Z,64.87
2019-02-22T03:40:31.095Z,66.00
2019-02-22T03:43:02.240Z,57.27
2019-02-22T03:45:33.423Z,62.47
2019-02-22T03:48:04.929Z,62.47
2019-02-22T03:50:36.075Z,67.70
2019-02-22T03:53:35.309Z,64.63
2019-02-22T03:56:06.649Z,61.97
2019-02-22T03:58:37.927Z,59.50
2019-02-22T04:01:09.367Z,60.73
2019-02-22T04:03:40.539Z,61.03
2019-02-22T04:06:11.477Z,58.23
2019-02-22T04:08:42.454Z,55.73
2019-02-22T04:11:13.385Z,68.83
2019-02-22T04:13:44.293Z,59.83
2019-02-22T04:16:15.516Z,60.50
2019-02-22T04:18:46.687Z,50.00
2019-02-22T04:21:17.856Z,59.70
2019-02-22T04:23:49.019Z,61.67
2019-02-22T04:26:20.175Z,58.27
2019-02-22T04:28:53.720Z,67.53
2019-02-22T04:31:24.940Z,58.43
2019-02-22T04:33:55.866Z,65.27
2019-02-22T04:36:27.351Z,60.30
2019-02-22T04:38:58.557Z,63.20
2019-02-22T04:41:29.521Z,65.37
2019-02-22T04:44:12.476Z,57.00
2019-02-22T04:46:43.659Z,65.10
2019-02-22T04:49:14.876Z,74.77
2019-02-22T04:51:45.773Z,57.07
2019-02-22T04:54:17.159Z,59.80
2019-02-22T04:56:48.327Z,57.90
2019-02-22T04:59:19.598Z,62.10
2019-02-22T05:01:50.959Z,57.13
2019-02-22T05:04:22.108Z,63.73
2019-02-22T05:06:53.681Z,62.13
2019-02-22T05:09:25.096Z,67.37
2019-02-22T05:11:56.416Z,61.50
2019-02-22T05:14:27.566Z,61.60
2019-02-22T05:16:58.739Z,56.97
2019-02-22T05:19:30.663Z,59.97
2019-02-22T05:22:01.604Z,54.87
2019-02-22T05:24:32.738Z,55.97
2019-02-22T05:27:04.162Z,62.60
2019-02-22T05:29:35.576Z,58.63
2019-02-22T05:32:06.523Z,55.63
2019-02-22T05:34:37.911Z,57.43
2019-02-22T05:37:10.547Z,54.60
2019-02-22T05:39:41.693Z,48.80
2019-02-22T05:42:22.579Z,57.07
2019-02-22T05:44:45.792Z,53.67
2019-02-22T05:47:17.174Z,58.83
2019-02-22T05:49:48.368Z,63.28
2019-02-22T05:52:19.537Z,57.77
2019-02-22T05:54:50.744Z,53.23
2019-02-22T05:57:21.943Z,53.03
2019-02-22T05:59:53.134Z,58.67
2019-02-22T06:02:24.043Z,55.03
2019-02-22T06:04:55.210Z,54.57
2019-02-22T06:07:26.195Z,50.63
2019-02-22T06:09:57.099Z,55.83
2019-02-22T06:12:34.611Z,58.27
2019-02-22T06:15:01.355Z,53.37
2019-02-22T06:17:32.279Z,53.87
2019-02-22T06:20:03.259Z,57.60
2019-02-22T06:22:34.296Z,60.67
2019-02-22T06:25:06.101Z,59.73
2019-02-22T06:27:38.623Z,55.57
2019-02-22T06:30:11.027Z,54.93
2019-02-22T06:32:42.401Z,48.50
2019-02-22T06:35:14.740Z,55.83
2019-02-22T06:37:46.443Z,51.40
2019-02-22T06:40:17.351Z,54.93
2019-02-22T06:42:48.532Z,53.17
2019-02-22T06:45:19.680Z,51.97
2019-02-22T06:47:50.845Z,45.23
2019-02-22T06:50:33.136Z,55.70
2019-02-22T06:52:54.747Z,43.33
2019-02-22T06:55:25.981Z,50.83
2019-02-22T06:57:57.147Z,56.87
2019-02-22T07:00:28.305Z,59.67
2019-02-22T07:02:59.761Z,52.50
2019-02-22T07:05:30.686Z,51.30
2019-02-22T07:08:01.919Z,49.07
2019-02-22T07:10:51.911Z,63.37
2019-02-22T07:13:24.497Z,49.47
2019-02-22T07:15:55.819Z,65.47
2019-02-22T07:18:26.723Z,54.47
2019-02-22T07:20:57.871Z,60.37
2019-02-22T07:23:29.259Z,58.43
2019-02-22T07:26:00.604Z,63.13
2019-02-22T07:28:31.798Z,65.40
2019-02-22T07:31:02.975Z,67.43
2019-02-22T07:33:33.906Z,61.57
2019-02-22T07:36:05.124Z,57.23
2019-02-22T07:38:36.269Z,55.73
2019-02-22T07:41:07.424Z,50.00
2019-02-22T07:43:38.868Z,54.83
2019-02-22T07:46:09.996Z,55.80
2019-02-22T07:48:41.151Z,57.80
2019-02-22T07:51:12.051Z,57.57
2019-02-22T07:53:43.207Z,62.37
2019-02-22T07:56:14.443Z,59.17
2019-02-22T07:58:45.711Z,65.60
2019-02-22T08:01:16.860Z,55.00
2019-02-22T08:03:49.000Z,56.00
2019-02-22T08:06:20.041Z,58.27
2019-02-22T08:08:51.475Z,57.73
2019-02-22T08:11:22.397Z,62.93
2019-02-22T08:13:53.619Z,63.80
2019-02-22T08:16:25.620Z,57.93
2019-02-22T08:19:01.434Z,54.20
2019-02-22T08:21:29.407Z,59.10
2019-02-22T08:24:00.326Z,69.43
2019-02-22T08:26:32.529Z,61.77
2019-02-22T08:29:03.758Z,72.47
2019-02-22T08:31:36.043Z,65.03
2019-02-22T08:34:07.467Z,74.03
2019-02-22T08:36:38.639Z,62.00
2019-02-22T08:39:09.714Z,68.70
2019-02-22T08:41:40.858Z,61.80
2019-02-22T08:44:12.011Z,64.73
2019-02-22T08:46:43.183Z,71.20
2019-02-22T08:49:14.351Z,57.40
2019-02-22T08:51:45.258Z,60.70
2019-02-22T08:54:16.490Z,72.33
2019-02-22T08:56:47.915Z,69.73
2019-02-22T08:59:19.146Z,67.93
2019-02-22T09:01:50.290Z,62.50
2019-02-22T09:04:21.448Z,72.73
2019-02-22T09:06:52.579Z,76.97
2019-02-22T09:09:23.531Z,67.33
2019-02-22T09:11:57.466Z,79.27
2019-02-22T09:14:27.552Z,59.77
2019-02-22T09:16:58.736Z,66.67
2019-02-22T09:19:29.978Z,59.87
2019-02-22T09:22:01.159Z,58.93
2019-02-22T09:24:32.339Z,63.13
2019-02-22T09:27:04.133Z,60.57
2019-02-22T09:29:35.174Z,55.73
2019-02-22T09:32:06.167Z,57.77
2019-02-22T09:34:37.350Z,51.33
2019-02-22T09:37:08.252Z,54.53
2019-02-22T09:39:39.271Z,56.83
2019-02-22T09:42:10.427Z,54.87
2019-02-22T09:44:41.611Z,50.97
2019-02-22T09:47:12.781Z,53.77
2019-02-22T09:49:43.955Z,48.90
2019-02-22T09:52:14.844Z,54.47
2019-02-22T09:54:45.755Z,52.97
2019-02-22T09:57:16.934Z,41.40
2019-02-22T09:59:47.884Z,43.17
2019-02-22T10:02:19.015Z,44.43
2019-02-22T10:04:55.023Z,48.03
2019-02-22T10:07:23.314Z,41.20
2019-02-22T10:09:54.480Z,50.77
2019-02-22T10:12:25.724Z,39.80
2019-02-22T10:14:57.117Z,42.97
2019-02-22T10:17:28.251Z,35.97
2019-02-22T10:20:01.510Z,36.37
2019-02-22T10:22:32.567Z,37.70
2019-02-22T10:25:03.571Z,41.33
2019-02-22T10:27:34.794Z,36.23
2019-02-22T10:30:06.313Z,34.93
2019-02-22T10:32:37.281Z,32.87
2019-02-22T10:35:08.346Z,29.83
2019-02-22T10:37:39.249Z,29.70
2019-02-22T10:40:10.576Z,30.07
2019-02-22T10:42:41.471Z,31.97
2019-02-22T10:45:12.839Z,31.60
2019-02-22T10:47:44.010Z,30.53
2019-02-22T10:50:15.346Z,33.93
2019-02-22T10:52:46.521Z,27.80
2019-02-22T10:55:17.586Z,27.90
2019-02-22T10:57:48.818Z,30.67
2019-02-22T11:00:20.059Z,27.53
2019-02-22T11:02:50.993Z,24.17
2019-02-22T11:05:22.154Z,24.97
2019-02-22T11:07:53.305Z,23.53
2019-02-22T11:10:24.487Z,20.13
2019-02-22T11:12:55.540Z,20.73
2019-02-22T11:15:26.803Z,23.50
2019-02-22T11:17:57.943Z,19.97
2019-02-22T11:20:28.862Z,18.60
2019-02-22T11:23:00.031Z,30.90
2019-02-22T11:25:31.196Z,20.70
2019-02-22T11:28:02.099Z,20.73
2019-02-22T11:30:33.276Z,20.03
2019-02-22T11:33:04.210Z,21.77
2019-02-22T11:35:35.123Z,20.47
2019-02-22T11:38:06.026Z,22.10
2019-02-22T11:40:44.074Z,23.33
2019-02-22T11:43:14.980Z,22.87
2019-02-22T11:45:46.425Z,22.70
2019-02-22T11:48:17.921Z,21.57
2019-02-22T11:50:49.127Z,26.33
2019-02-22T11:53:20.591Z,26.23
2019-02-22T11:55:51.882Z,25.27
2019-02-22T11:58:24.095Z,24.30
2019-02-22T12:00:55.084Z,22.60
2019-02-22T12:03:26.080Z,20.33
2019-02-22T12:05:57.335Z,23.73
2019-02-22T12:08:28.505Z,21.87
2019-02-22T12:10:59.995Z,22.10
2019-02-22T12:13:32.295Z,23.60
2019-02-22T12:16:03.423Z,20.70
2019-02-22T12:18:36.685Z,22.03
2019-02-22T12:21:08.031Z,21.60
2019-02-22T12:23:39.440Z,21.53
2019-02-22T12:26:11.814Z,20.10
2019-02-22T12:28:42.754Z,18.63
2019-02-22T12:31:13.899Z,21.13
2019-02-22T12:33:46.141Z,21.23
2019-02-22T12:36:17.319Z,19.70
2019-02-22T12:38:48.315Z,22.20
2019-02-22T12:41:19.695Z,22.33
2019-02-22T12:43:50.846Z,17.93
2019-02-22T12:46:21.829Z,18.07
2019-02-22T12:48:53.242Z,18.73
2019-02-22T12:51:24.644Z,18.97
2019-02-22T12:53:55.635Z,16.07
2019-02-22T12:56:55.768Z,13.97
2019-02-22T12:59:00.383Z,14.83
2019-02-22T13:01:31.331Z,14.97
2019-02-22T13:04:02.551Z,13.87
2019-02-22T13:06:33.708Z,13.77
2019-02-22T13:09:05.772Z,15.80
2019-02-22T13:11:38.306Z,15.53
2019-02-22T13:14:09.819Z,15.00
2019-02-22T13:16:40.960Z,13.57
2019-02-22T13:19:12.328Z,13.13
2019-02-22T13:21:43.719Z,13.33
2019-02-22T13:24:18.358Z,12.83
2019-02-22T13:26:49.826Z,12.73
2019-02-22T13:29:21.231Z,10.80
2019-02-22T13:31:53.313Z,11.47
2019-02-22T13:34:24.851Z,11.67
2019-02-22T13:36:56.027Z,10.67
2019-02-22T13:39:27.170Z,13.30
2019-02-22T13:41:58.315Z,12.07
2019-02-22T13:44:29.287Z,10.37
2019-02-22T13:47:00.495Z,9.80
2019-02-22T13:49:31.639Z,10.53
2019-02-22T13:52:02.547Z,10.43
2019-02-22T13:54:35.329Z,9.30
2019-02-22T13:57:06.547Z,10.73
2019-02-22T13:59:37.772Z,11.33
2019-02-22T14:02:08.983Z,10.40
2019-02-22T14:04:40.232Z,11.13
2019-02-22T14:07:11.388Z,9.67
2019-02-22T14:09:42.795Z,9.98
2019-02-22T14:12:14.249Z,12.43
2019-02-22T14:14:45.748Z,8.33
2019-02-22T14:17:16.888Z,7.67
2019-02-22T14:19:48.074Z,8.07
2019-02-22T14:22:18.983Z,8.70
2019-02-22T14:24:53.741Z,8.77
2019-02-22T14:27:28.535Z,9.30
2019-02-22T14:29:59.680Z,7.33
2019-02-22T14:32:30.751Z,6.73
2019-02-22T14:35:02.129Z,9.53
2019-02-22T14:37:33.305Z,6.07
2019-02-22T14:40:07.368Z,6.63
2019-02-22T14:42:38.504Z,7.57
2019-02-22T14:45:10.192Z,7.33
2019-02-22T14:47:41.332Z,9.83
2019-02-22T14:50:14.120Z,7.73
2019-02-22T14:52:45.098Z,7.07
2019-02-22T14:55:16.655Z,8.80
2019-02-22T14:57:48.077Z,6.60
2019-02-22T15:00:19.733Z,7.30
2019-02-22T15:02:50.818Z,7.33
2019-02-22T15:05:22.295Z,5.70
2019-02-22T15:07:53.504Z,7.83
2019-02-22T15:10:24.661Z,7.43
2019-02-22T15:12:56.060Z,6.20
2019-02-22T15:15:43.615Z,5.93
2019-02-22T15:18:15.389Z,6.97
2019-02-22T15:20:46.675Z,7.47
2019-02-22T15:23:17.572Z,7.70
2019-02-22T15:25:48.707Z,8.57
2019-02-22T15:28:19.855Z,7.67
2019-02-22T15:30:51.340Z,7.13
2019-02-22T15:33:22.719Z,6.80
2019-02-22T15:35:53.871Z,10.13
2019-02-22T15:38:24.998Z,9.10
2019-02-22T15:40:56.272Z,9.80
2019-02-22T15:43:27.371Z,9.30
2019-02-22T15:45:58.749Z,8.93
2019-02-22T15:48:29.934Z,11.13
2019-02-22T15:51:01.086Z,11.20
